Řízení letového provozu České republiky
Letiste: LKKV Aktualizace: 20.01.2019 10:31:06  UTC
 METAR LKKV 20.01. 10:30 ...
METAR LKKV 201030Z 10008KT 9999 SCT009 OVC011 M06/M07 Q1014 R29/720295 RMK REG QNH 1010=
 TAF LKKV 20.01. 05:00 ...
TAF LKKV 200500Z 2006/2112 11005KT 5000 BR BKN005      TEMPO 2006/2009 BKN003      BECMG 2009/2011 9999 BKN020      BECMG 2022/2100 5000 BR SCT003      BECMG 2100/2102 1000 BR BKN002      TEMPO 2102/2108 0600 FZFG BKN001      BECMG 2109/2111 9999 BKN030=